Time;durP1;ratioP1;P1;durP2;ratioP2;P2;SDS_P1;SDS_P2;PMS_P1;PMS_P2;Temp;Humidity;BMP_temperature;BMP_pressure;BME280_temperature;BME280_humidity;BME280_pressure;Samples;Min_cycle;Max_cycle;Signal;HPM_P1;HPM_P2
2021/11/18 00:00:29;;;;;;;20.65;3.25;;;4.90;98.20;;;;;;4960699;28;20109;-74
2021/11/18 00:02:56;;;;;;;14.50;3.40;;;4.90;98.20;;;;;;4976137;28;20031;-73
2021/11/18 00:05:24;;;;;;;21.45;3.58;;;5.00;98.40;;;;;;4946644;28;20213;-73
2021/11/18 00:07:51;;;;;;;13.57;3.33;;;5.00;98.20;;;;;;4939947;28;20130;-74
2021/11/18 00:10:39;;;;;;;14.00;3.45;;;5.00;98.30;;;;;;4942720;28;20038;-73
2021/11/18 00:13:09;;;;;;;16.25;3.17;;;5.00;98.30;;;;;;4945159;28;20130;-73
2021/11/18 00:15:35;;;;;;;14.85;2.92;;;4.90;98.30;;;;;;4957849;28;20079;-74
2021/11/18 00:18:05;;;;;;;16.00;3.40;;;5.00;98.40;;;;;;4943069;28;20027;-73
2021/11/18 00:20:35;;;;;;;16.70;3.28;;;4.80;98.30;;;;;;4958971;28;20114;-74
2021/11/18 00:23:01;;;;;;;14.30;3.22;;;4.90;98.50;;;;;;4960385;28;20027;-73
2021/11/18 00:25:27;;;;;;;17.23;3.65;;;4.80;98.50;;;;;;4945820;28;20058;-74
2021/11/18 00:27:53;;;;;;;15.82;2.95;;;4.80;98.60;;;;;;4945570;29;20157;-73
2021/11/18 00:30:19;;;;;;;15.98;3.40;;;4.80;98.50;;;;;;4961982;28;20496;-74
2021/11/18 00:32:45;;;;;;;16.98;3.35;;;4.80;98.60;;;;;;4945696;28;20205;-73
2021/11/18 00:35:15;;;;;;;17.75;3.80;;;4.80;98.60;;;;;;4943376;28;20110;-73
2021/11/18 00:37:42;;;;;;;16.65;3.45;;;4.70;98.70;;;;;;4947009;28;20037;-74
2021/11/18 00:40:09;;;;;;;16.60;3.55;;;4.70;98.70;;;;;;4946447;28;20464;-73
2021/11/18 00:42:35;;;;;;;17.48;3.40;;;4.70;98.70;;;;;;4977159;28;20039;-73
2021/11/18 00:45:02;;;;;;;15.75;4.03;;;4.60;98.80;;;;;;4948160;28;20038;-73
2021/11/18 00:47:28;;;;;;;18.92;3.97;;;4.60;98.80;;;;;;4945006;28;20031;-73
2021/11/18 00:49:53;;;;;;;18.08;3.67;;;4.60;98.80;;;;;;4944125;28;20106;-74
2021/11/18 00:52:20;;;;;;;13.60;3.78;;;4.60;98.90;;;;;;4960344;28;20158;-73
2021/11/18 00:54:47;;;;;;;14.82;4.00;;;4.50;98.80;;;;;;4945398;28;20041;-73
2021/11/18 00:57:13;;;;;;;25.95;3.55;;;4.40;98.90;;;;;;4944956;28;20442;-73
2021/11/18 00:59:38;;;;;;;32.15;4.38;;;4.50;99.10;;;;;;4947951;28;20041;-74
2021/11/18 01:02:04;;;;;;;18.98;4.07;;;4.40;99.00;;;;;;4944857;28;20346;-73
2021/11/18 01:04:30;;;;;;;23.15;3.60;;;4.40;99.00;;;;;;4947112;29;20033;-73
2021/11/18 01:06:58;;;;;;;24.35;4.70;;;4.40;99.10;;;;;;4944600;28;20114;-73
2021/11/18 01:09:27;;;;;;;21.00;4.10;;;4.40;99.20;;;;;;4944921;28;20034;-73
2021/11/18 01:11:52;;;;;;;20.58;4.63;;;4.30;99.20;;;;;;4944245;28;20054;-74
2021/11/18 01:14:20;;;;;;;18.67;4.50;;;4.40;99.30;;;;;;4947372;29;20093;-73
2021/11/18 01:16:46;;;;;;;21.77;4.18;;;4.50;99.40;;;;;;4943883;28;20046;-73
2021/11/18 01:19:13;;;;;;;24.17;4.30;;;4.50;99.40;;;;;;4945604;28;20031;-74
2021/11/18 01:21:41;;;;;;;20.50;4.82;;;4.50;99.40;;;;;;4973999;28;20041;-73
2021/11/18 01:24:08;;;;;;;20.70;4.38;;;4.60;99.40;;;;;;4946689;28;20023;-74
2021/11/18 01:26:33;;;;;;;22.92;4.68;;;4.60;99.40;;;;;;4943337;28;20078;-74
2021/11/18 01:29:00;;;;;;;22.98;4.43;;;4.60;99.40;;;;;;4945878;28;20065;-72
2021/11/18 01:31:26;;;;;;;23.20;4.57;;;4.60;99.30;;;;;;4946543;28;20083;-73
2021/11/18 01:33:52;;;;;;;19.00;4.00;;;4.60;99.30;;;;;;4977023;28;20471;-74
2021/11/18 01:36:18;;;;;;;22.75;4.13;;;4.60;99.30;;;;;;4945073;28;20118;-73
2021/11/18 01:38:45;;;;;;;21.77;4.65;;;4.50;99.30;;;;;;4947404;28;20115;-74
2021/11/18 01:41:15;;;;;;;23.67;4.63;;;4.50;99.30;;;;;;4958630;28;20524;-73
2021/11/18 01:43:45;;;;;;;17.53;4.00;;;4.60;99.40;;;;;;4946145;28;20039;-73
2021/11/18 01:46:19;;;;;;;24.58;4.63;;;4.60;99.40;;;;;;4943441;28;20279;-75
2021/11/18 01:48:50;;;;;;;18.15;4.10;;;4.60;99.40;;;;;;4943339;28;20031;-74
2021/11/18 01:51:17;;;;;;;21.45;4.85;;;4.60;99.40;;;;;;4945805;28;20023;-74
2021/11/18 01:53:44;;;;;;;18.58;4.35;;;4.60;99.30;;;;;;4997477;23;20043;-75
2021/11/18 01:56:13;;;;;;;20.08;4.43;;;4.60;99.40;;;;;;4979903;28;20550;-75
2021/11/18 01:58:40;;;;;;;20.25;4.13;;;4.60;99.30;;;;;;4962875;28;20117;-75
2021/11/18 02:01:09;;;;;;;29.60;5.03;;;4.70;99.40;;;;;;4958866;28;20031;-75
2021/11/18 02:03:35;;;;;;;18.80;4.15;;;4.60;99.40;;;;;;4969536;28;20030;-75
2021/11/18 02:06:13;;;;;;;24.05;4.65;;;4.70;99.40;;;;;;4966779;28;20030;-75
2021/11/18 02:08:39;;;;;;;21.13;4.15;;;4.70;99.30;;;;;;4967767;28;20111;-75
2021/11/18 02:11:13;;;;;;;18.48;4.63;;;4.70;99.40;;;;;;4965560;28;20041;-75
2021/11/18 02:13:38;;;;;;;24.42;4.45;;;4.80;99.40;;;;;;4966196;28;20061;-75
2021/11/18 02:16:12;;;;;;;22.50;4.22;;;4.80;99.40;;;;;;4966719;28;20158;-75
2021/11/18 02:18:39;;;;;;;26.80;4.20;;;4.90;99.50;;;;;;4966140;28;20029;-75
2021/11/18 02:21:08;;;;;;;21.35;4.10;;;5.00;99.40;;;;;;4965963;28;20415;-75
2021/11/18 02:23:37;;;;;;;18.73;3.95;;;5.10;99.40;;;;;;4966152;28;20111;-76
2021/11/18 02:26:04;;;;;;;19.13;4.18;;;5.30;99.40;;;;;;4965690;28;20228;-75
2021/11/18 02:28:33;;;;;;;20.27;4.00;;;5.40;99.30;;;;;;4963702;28;20023;-75
2021/11/18 02:31:02;;;;;;;18.40;4.22;;;5.50;99.20;;;;;;4967316;28;20046;-75
2021/11/18 02:33:27;;;;;;;22.33;4.20;;;5.60;99.10;;;;;;4981006;28;20164;-75
2021/11/18 02:35:56;;;;;;;14.88;4.75;;;5.60;99.10;;;;;;4967755;28;20057;-75
2021/11/18 02:38:22;;;;;;;21.02;4.45;;;5.70;99.20;;;;;;4966661;28;20027;-75
2021/11/18 02:40:48;;;;;;;26.35;5.05;;;5.80;99.20;;;;;;4968840;28;20392;-75
2021/11/18 02:43:17;;;;;;;21.67;4.22;;;5.80;99.20;;;;;;4966950;28;20505;-75
2021/11/18 02:45:47;;;;;;;21.70;4.30;;;5.80;99.10;;;;;;4968837;28;20043;-75
2021/11/18 02:48:14;;;;;;;27.77;4.68;;;5.80;99.20;;;;;;4967895;28;20030;-75
2021/11/18 02:50:43;;;;;;;21.00;4.15;;;5.80;99.20;;;;;;4968410;28;20045;-74
2021/11/18 02:53:08;;;;;;;22.08;4.80;;;5.90;99.30;;;;;;4970915;28;20030;-75
2021/11/18 02:55:38;;;;;;;18.60;4.55;;;5.90;99.30;;;;;;4971568;28;20035;-75
2021/11/18 02:58:04;;;;;;;15.77;3.88;;;5.90;99.30;;;;;;4968238;28;20562;-75
2021/11/18 03:00:37;;;;;;;21.15;4.10;;;5.90;99.40;;;;;;4966890;28;20049;-75
2021/11/18 03:03:02;;;;;;;18.75;4.53;;;5.90;99.50;;;;;;4967690;28;20038;-74
2021/11/18 03:05:28;;;;;;;15.65;4.20;;;5.90;99.50;;;;;;4984116;28;20389;-74
2021/11/18 03:07:57;;;;;;;29.00;4.30;;;5.90;99.50;;;;;;4967232;28;20031;-75
2021/11/18 03:10:24;;;;;;;26.80;5.07;;;5.90;99.50;;;;;;4971088;28;20484;-75
2021/11/18 03:12:49;;;;;;;26.23;4.82;;;5.90;99.50;;;;;;4966270;28;20042;-75
2021/11/18 03:15:16;;;;;;;19.48;4.80;;;5.90;99.60;;;;;;4970382;28;20408;-75
2021/11/18 03:17:42;;;;;;;19.50;4.35;;;6.00;99.60;;;;;;4968375;28;20073;-75
2021/11/18 03:20:11;;;;;;;24.05;4.65;;;6.00;99.60;;;;;;4970839;28;20035;-75
2021/11/18 03:22:38;;;;;;;19.63;4.57;;;6.00;99.60;;;;;;4964406;28;20050;-75
2021/11/18 03:25:05;;;;;;;21.13;4.45;;;6.00;99.60;;;;;;4968182;28;20384;-75
2021/11/18 03:27:31;;;;;;;29.70;5.03;;;6.00;99.60;;;;;;4970176;28;20027;-75
2021/11/18 03:29:56;;;;;;;19.02;4.80;;;6.00;99.70;;;;;;4970227;28;20031;-75
2021/11/18 03:32:22;;;;;;;21.77;4.40;;;6.00;99.60;;;;;;4967612;28;20035;-75
2021/11/18 03:34:48;;;;;;;23.98;4.72;;;6.00;99.60;;;;;;4968894;28;20050;-74
2021/11/18 03:37:13;;;;;;;15.07;4.28;;;6.00;99.70;;;;;;4983219;28;20532;-75
2021/11/18 03:39:39;;;;;;;27.42;5.35;;;6.10;99.70;;;;;;4970658;28;20026;-75
2021/11/18 03:42:07;;;;;;;21.38;4.90;;;6.10;99.70;;;;;;4965402;28;20030;-75
2021/11/18 03:44:33;;;;;;;19.25;4.72;;;6.10;99.70;;;;;;4977901;28;20030;-75
2021/11/18 03:47:03;;;;;;;21.75;4.22;;;6.10;99.70;;;;;;4968092;28;20128;-75
2021/11/18 03:49:29;;;;;;;23.48;4.70;;;6.10;99.70;;;;;;4970763;28;20037;-75
2021/11/18 03:51:57;;;;;;;27.48;5.38;;;6.00;99.60;;;;;;4967877;28;20027;-75
2021/11/18 03:54:25;;;;;;;25.35;5.13;;;5.90;99.60;;;;;;4969851;28;20118;-75
2021/11/18 03:56:51;;;;;;;21.67;4.95;;;5.80;99.60;;;;;;4980253;28;20026;-75
2021/11/18 03:59:21;;;;;;;21.90;6.00;;;5.80;99.60;;;;;;4961003;28;20084;-75
2021/11/18 04:01:48;;;;;;;24.85;5.90;;;5.80;99.70;;;;;;4968150;28;20210;-74
2021/11/18 04:04:18;;;;;;;23.60;6.38;;;5.80;99.70;;;;;;4967993;28;20285;-75
2021/11/18 04:06:44;;;;;;;23.25;6.10;;;5.70;99.70;;;;;;4971236;28;20669;-75
2021/11/18 04:09:11;;;;;;;26.75;6.10;;;5.70;99.80;;;;;;4967174;28;20085;-75
2021/11/18 04:11:38;;;;;;;31.65;6.15;;;5.70;99.80;;;;;;4965843;28;20393;-75
2021/11/18 04:14:05;;;;;;;23.52;5.78;;;5.80;99.80;;;;;;4968063;28;20182;-75
2021/11/18 04:16:30;;;;;;;28.30;5.85;;;5.70;99.80;;;;;;4966779;28;20109;-75
2021/11/18 04:18:57;;;;;;;23.15;6.32;;;5.70;99.80;;;;;;4974365;28;20106;-75
2021/11/18 04:21:22;;;;;;;34.20;6.18;;;5.70;99.80;;;;;;4969078;28;20053;-75
2021/11/18 04:23:48;;;;;;;16.92;4.88;;;5.70;99.90;;;;;;4983959;28;20643;-75
2021/11/18 04:26:14;;;;;;;25.73;5.25;;;5.70;99.90;;;;;;4965978;28;20031;-75
2021/11/18 04:28:40;;;;;;;27.33;5.60;;;5.70;99.90;;;;;;4969354;28;20484;-75
2021/11/18 04:31:09;;;;;;;26.83;6.20;;;5.70;99.90;;;;;;4968593;28;20026;-75
2021/11/18 04:33:36;;;;;;;18.48;5.57;;;5.70;99.90;;;;;;4968939;28;20050;-75
2021/11/18 04:36:04;;;;;;;19.95;6.18;;;5.70;99.90;;;;;;4968714;28;20098;-75
2021/11/18 04:38:30;;;;;;;23.33;5.30;;;5.70;99.90;;;;;;4968547;28;20015;-74
2021/11/18 04:40:56;;;;;;;26.15;5.80;;;5.80;99.90;;;;;;4969252;28;20113;-75
2021/11/18 04:43:23;;;;;;;26.10;6.45;;;5.80;99.90;;;;;;4966616;28;20038;-75
2021/11/18 04:45:49;;;;;;;30.33;6.60;;;5.80;99.90;;;;;;4964746;28;20108;-75
2021/11/18 04:48:14;;;;;;;31.20;6.55;;;5.80;99.90;;;;;;4967892;28;20495;-75
2021/11/18 04:50:40;;;;;;;25.45;5.88;;;5.80;99.90;;;;;;4969636;28;20023;-75
2021/11/18 04:53:06;;;;;;;24.10;6.82;;;5.80;99.90;;;;;;4967801;28;20121;-75
2021/11/18 04:55:33;;;;;;;30.83;6.85;;;5.90;99.90;;;;;;4964830;28;20324;-75
2021/11/18 04:57:59;;;;;;;34.63;6.95;;;5.90;99.90;;;;;;4967116;28;20023;-75
2021/11/18 05:00:33;;;;;;;31.88;8.00;;;5.80;99.90;;;;;;4968542;28;20023;-75
2021/11/18 05:02:59;;;;;;;26.15;6.90;;;5.80;99.90;;;;;;4967268;28;20081;-75
2021/11/18 05:05:26;;;;;;;38.78;8.05;;;5.90;99.90;;;;;;4968780;28;20022;-75
2021/11/18 05:07:52;;;;;;;29.17;7.57;;;5.90;99.90;;;;;;4963115;28;20507;-75
2021/11/18 05:10:19;;;;;;;39.67;7.50;;;5.80;99.90;;;;;;4968307;28;20559;-75
2021/11/18 05:12:45;;;;;;;35.28;7.03;;;5.80;99.90;;;;;;4967156;28;20054;-74
2021/11/18 05:15:16;;;;;;;27.25;7.00;;;5.80;99.90;;;;;;4968743;28;20053;-75
2021/11/18 05:17:42;;;;;;;31.02;7.30;;;5.80;99.90;;;;;;4967336;28;20570;-75
2021/11/18 05:22:44;;;;;;;22.95;7.57;;;5.90;99.90;;;;;;5623326;23;20033;-63
2021/11/18 05:25:10;;;;;;;26.02;7.68;;;5.80;99.90;;;;;;4976250;28;20058;-63
2021/11/18 05:27:36;;;;;;;24.65;7.60;;;5.80;99.90;;;;;;4995474;28;20034;-63
2021/11/18 05:30:03;;;;;;;31.17;8.00;;;5.80;99.90;;;;;;5000547;28;20045;-62
2021/11/18 05:32:28;;;;;;;34.20;8.88;;;5.90;99.90;;;;;;5001312;28;20052;-63
2021/11/18 05:34:54;;;;;;;37.30;8.80;;;5.90;99.90;;;;;;4994391;28;20058;-62
2021/11/18 05:37:19;;;;;;;27.02;7.75;;;5.80;99.90;;;;;;5007722;23;20053;-65
2021/11/18 05:39:45;;;;;;;29.48;8.63;;;5.90;99.90;;;;;;4992953;28;20092;-66
2021/11/18 05:42:12;;;;;;;33.63;8.98;;;5.90;99.90;;;;;;4981458;28;20026;-67
2021/11/18 05:44:38;;;;;;;36.50;8.80;;;5.90;99.90;;;;;;4985606;28;20549;-66
2021/11/18 05:47:03;;;;;;;31.50;8.40;;;6.00;99.90;;;;;;4982425;28;20043;-68
2021/11/18 05:49:29;;;;;;;41.15;9.25;;;6.00;99.90;;;;;;4972251;28;20026;-67
2021/11/18 05:51:55;;;;;;;44.05;9.77;;;5.90;99.90;;;;;;4982002;28;20066;-67
2021/11/18 05:54:20;;;;;;;34.75;9.38;;;6.00;99.90;;;;;;4979879;28;20037;-66
2021/11/18 05:56:46;;;;;;;37.55;9.38;;;6.00;99.90;;;;;;4983775;28;20517;-67
2021/11/18 05:59:12;;;;;;;32.45;9.13;;;6.00;99.90;;;;;;4981248;28;20092;-67
2021/11/18 06:01:39;;;;;;;35.08;9.98;;;6.00;99.90;;;;;;4978151;28;20462;-67
2021/11/18 06:04:05;;;;;;;28.00;9.32;;;6.10;99.90;;;;;;4995529;28;20475;-67
2021/11/18 06:06:31;;;;;;;31.27;9.18;;;6.00;99.90;;;;;;4975527;28;20391;-67
2021/11/18 06:09:02;;;;;;;40.95;9.70;;;6.10;99.90;;;;;;4978591;28;20038;-68
2021/11/18 06:11:30;;;;;;;29.45;9.15;;;6.00;99.90;;;;;;4980371;28;20040;-66
2021/11/18 06:13:55;;;;;;;43.60;9.98;;;6.00;99.90;;;;;;4977459;28;20038;-65
2021/11/18 06:16:24;;;;;;;30.08;9.90;;;6.10;99.90;;;;;;4984816;28;20425;-67
2021/11/18 06:18:50;;;;;;;36.78;10.07;;;6.10;99.90;;;;;;4977151;28;20037;-67
2021/11/18 06:21:16;;;;;;;26.38;9.35;;;6.10;99.90;;;;;;4980074;28;20501;-66
2021/11/18 06:23:43;;;;;;;38.33;9.73;;;6.10;99.90;;;;;;4980395;28;20034;-66
2021/11/18 06:26:10;;;;;;;31.40;9.60;;;6.10;99.90;;;;;;4986306;28;20108;-65
2021/11/18 06:28:35;;;;;;;38.25;10.80;;;6.10;99.90;;;;;;4981046;28;20022;-65
2021/11/18 06:31:07;;;;;;;35.85;10.45;;;6.10;99.90;;;;;;4987444;28;20084;-66
2021/11/18 06:33:33;;;;;;;41.55;11.55;;;6.10;99.90;;;;;;4979573;28;20037;-67
2021/11/18 06:35:58;;;;;;;27.85;10.30;;;6.10;99.90;;;;;;4983752;28;20406;-67
2021/11/18 06:38:24;;;;;;;36.63;10.48;;;6.20;99.90;;;;;;4986297;28;20034;-67
2021/11/18 06:40:50;;;;;;;41.60;10.73;;;6.20;99.90;;;;;;4986705;28;20026;-67
2021/11/18 06:43:18;;;;;;;34.80;10.40;;;6.20;99.90;;;;;;4982162;28;20022;-66
2021/11/18 06:45:46;;;;;;;48.05;11.57;;;6.20;99.90;;;;;;4981766;28;20407;-65
2021/11/18 06:48:14;;;;;;;34.88;10.10;;;6.30;99.90;;;;;;4982800;28;20085;-67
2021/11/18 06:50:40;;;;;;;33.83;9.45;;;6.30;99.90;;;;;;4978345;28;20022;-67
2021/11/18 06:53:06;;;;;;;41.08;12.43;;;6.40;99.90;;;;;;4986149;28;20038;-67
2021/11/18 06:55:32;;;;;;;43.38;10.93;;;6.40;99.90;;;;;;4986469;28;20029;-68
2021/11/18 06:57:57;;;;;;;40.50;11.88;;;6.40;99.90;;;;;;4986458;28;20450;-67
2021/11/18 07:00:23;;;;;;;47.00;10.85;;;6.40;99.90;;;;;;4989122;28;20054;-67
2021/11/18 07:02:50;;;;;;;40.95;11.70;;;6.40;99.90;;;;;;4986980;28;20728;-66
2021/11/18 07:05:15;;;;;;;38.17;11.07;;;6.50;99.90;;;;;;4988253;28;20258;-68
2021/11/18 07:07:41;;;;;;;43.05;11.73;;;6.50;99.90;;;;;;4986777;28;20025;-67
2021/11/18 07:10:09;;;;;;;33.85;10.85;;;6.50;99.80;;;;;;4988973;28;20034;-67
2021/11/18 07:12:35;;;;;;;38.45;11.18;;;6.50;99.80;;;;;;4988682;28;20050;-68
2021/11/18 07:15:01;;;;;;;37.25;11.20;;;6.60;99.80;;;;;;4985178;28;20072;-66
2021/11/18 07:17:27;;;;;;;35.25;10.98;;;6.60;99.80;;;;;;4983991;28;20033;-67
2021/11/18 07:19:53;;;;;;;43.15;10.60;;;6.60;99.70;;;;;;4983353;28;20034;-67
2021/11/18 07:22:19;;;;;;;32.75;11.65;;;6.70;99.70;;;;;;4987310;28;20047;-66
2021/11/18 07:24:45;;;;;;;50.58;11.30;;;6.70;99.60;;;;;;4985194;28;20092;-67
2021/11/18 07:27:10;;;;;;;36.60;11.07;;;6.70;99.60;;;;;;4982042;28;20030;-66
2021/11/18 07:29:36;;;;;;;38.10;11.15;;;6.80;99.60;;;;;;4987734;28;20033;-67
2021/11/18 07:32:04;;;;;;;32.83;11.35;;;6.80;99.60;;;;;;4988309;28;20279;-67
2021/11/18 07:34:29;;;;;;;36.83;12.07;;;6.80;99.50;;;;;;5001897;28;20029;-67
2021/11/18 07:36:55;;;;;;;35.20;11.02;;;6.80;99.50;;;;;;4986904;28;20046;-66
2021/11/18 07:39:24;;;;;;;30.98;10.60;;;6.80;99.50;;;;;;4986735;28;20113;-65
2021/11/18 07:41:52;;;;;;;27.95;10.65;;;6.90;99.40;;;;;;4985016;28;20041;-66
2021/11/18 07:44:18;;;;;;;39.35;11.35;;;6.90;99.40;;;;;;4986079;28;20058;-65
2021/11/18 07:46:45;;;;;;;33.30;9.73;;;6.90;99.40;;;;;;4987138;28;20564;-67
2021/11/18 07:49:11;;;;;;;40.40;10.90;;;7.00;99.30;;;;;;4982121;28;20030;-67
2021/11/18 07:51:38;;;;;;;32.92;10.45;;;7.00;99.20;;;;;;4987564;28;20077;-67
2021/11/18 07:54:06;;;;;;;30.10;10.45;;;7.00;99.20;;;;;;4983690;28;20034;-66
2021/11/18 07:56:32;;;;;;;32.20;10.50;;;7.00;99.20;;;;;;4987394;28;20470;-66
2021/11/18 07:58:58;;;;;;;45.08;11.00;;;7.00;99.20;;;;;;4986125;28;20034;-66
2021/11/18 08:01:24;;;;;;;29.75;11.10;;;7.10;99.20;;;;;;4983381;28;20042;-66
2021/11/18 08:03:51;;;;;;;28.35;9.50;;;7.10;99.00;;;;;;4987514;28;20117;-65
2021/11/18 08:06:23;;;;;;;31.30;10.23;;;7.10;99.00;;;;;;4985200;28;20022;-67
2021/11/18 08:08:51;;;;;;;29.05;9.48;;;7.10;99.00;;;;;;4983421;28;20490;-66
2021/11/18 08:11:20;;;;;;;30.27;9.85;;;7.10;98.90;;;;;;4986564;28;20101;-65
2021/11/18 08:13:47;;;;;;;33.08;9.98;;;7.10;98.90;;;;;;4987070;28;20440;-67
2021/11/18 08:16:13;;;;;;;24.65;8.95;;;7.10;98.90;;;;;;4986121;28;20467;-67
2021/11/18 08:18:39;;;;;;;31.35;9.80;;;7.20;98.90;;;;;;4984889;28;20031;-65
2021/11/18 08:21:05;;;;;;;35.70;10.50;;;7.30;98.80;;;;;;4984440;28;20026;-66
2021/11/18 08:23:33;;;;;;;31.50;10.18;;;7.30;98.70;;;;;;4984176;28;20170;-67
2021/11/18 08:26:04;;;;;;;30.17;9.55;;;7.30;98.60;;;;;;4985269;28;20096;-66
2021/11/18 08:28:30;;;;;;;31.73;9.57;;;7.30;98.50;;;;;;4986305;28;20022;-68
2021/11/18 08:30:55;;;;;;;30.48;10.02;;;7.30;98.50;;;;;;4987551;28;20494;-68
2021/11/18 08:33:22;;;;;;;30.95;9.68;;;7.40;98.50;;;;;;4986147;28;20460;-66
2021/11/18 08:35:47;;;;;;;25.70;8.40;;;7.40;98.40;;;;;;4986692;28;20038;-67
2021/11/18 08:38:16;;;;;;;37.83;10.13;;;7.40;98.40;;;;;;4983307;28;20034;-65
2021/11/18 08:40:56;;;;;;;29.77;10.13;;;7.50;98.40;;;;;;4987657;28;20026;-67
2021/11/18 08:43:23;;;;;;;26.03;8.87;;;7.50;98.30;;;;;;4985575;28;20108;-67
2021/11/18 08:45:50;;;;;;;26.73;9.15;;;7.60;98.20;;;;;;4984398;28;20289;-67
2021/11/18 08:48:15;;;;;;;31.15;9.85;;;7.60;98.10;;;;;;4981322;28;20363;-66
2021/11/18 08:50:44;;;;;;;30.63;9.93;;;7.60;98.10;;;;;;4989516;28;20029;-67
2021/11/18 08:53:12;;;;;;;28.50;9.52;;;7.60;98.00;;;;;;4984656;28;20037;-66
2021/11/18 08:55:40;;;;;;;22.27;8.45;;;7.70;98.00;;;;;;4986903;28;20033;-67
2021/11/18 08:58:07;;;;;;;29.23;9.52;;;7.70;97.90;;;;;;4986381;28;20030;-67
2021/11/18 09:00:46;;;;;;;25.88;10.68;;;7.80;97.80;;;;;;4985953;28;20077;-67
2021/11/18 09:03:13;;;;;;;24.77;9.52;;;7.80;97.70;;;;;;4985030;28;20131;-66
2021/11/18 09:05:38;;;;;;;33.67;10.40;;;7.80;97.70;;;;;;4985079;28;20035;-66
2021/11/18 09:08:05;;;;;;;23.30;9.93;;;7.90;97.60;;;;;;4983712;28;20493;-67
2021/11/18 09:10:34;;;;;;;28.35;8.82;;;7.90;97.60;;;;;;4986584;28;20018;-67
2021/11/18 09:13:00;;;;;;;28.40;9.85;;;8.00;97.30;;;;;;4985778;28;20045;-67
2021/11/18 09:15:27;;;;;;;31.55;10.25;;;8.00;97.20;;;;;;4985215;28;20418;-65
2021/11/18 09:17:54;;;;;;;33.05;10.02;;;8.10;97.10;;;;;;4983902;28;20052;-67
2021/11/18 09:20:22;;;;;;;29.52;9.32;;;8.10;97.10;;;;;;4983477;28;20535;-67
2021/11/18 09:22:48;;;;;;;25.20;8.98;;;8.20;97.00;;;;;;4983949;28;21394;-67
2021/11/18 09:25:16;;;;;;;29.23;9.63;;;8.20;96.70;;;;;;4983277;28;20026;-65
2021/11/18 09:27:49;;;;;;;32.55;9.70;;;8.30;96.70;;;;;;4983096;28;20018;-65
2021/11/18 09:30:24;;;;;;;27.05;9.52;;;8.40;96.60;;;;;;4983021;28;20038;-65
2021/11/18 09:32:50;;;;;;;25.08;9.73;;;8.50;96.60;;;;;;4983656;28;20022;-66
2021/11/18 09:35:20;;;;;;;22.77;9.45;;;8.60;96.30;;;;;;4979695;28;20022;-66
2021/11/18 09:37:46;;;;;;;25.50;9.15;;;8.60;96.00;;;;;;4983085;28;20137;-67
2021/11/18 09:40:17;;;;;;;26.85;9.23;;;8.60;96.00;;;;;;4983107;28;20113;-66
2021/11/18 09:42:48;;;;;;;;;;;8.60;96.10;;;;;;4978502;28;20390;-67
2021/11/18 09:45:20;;;;;;;;;;;8.60;96.10;;;;;;4983155;28;19914;-65
2021/11/18 09:48:12;;;;;;;22.92;6.65;;;8.60;96.30;;;;;;4978825;28;19914;-65
2021/11/18 09:51:07;;;;;;;24.60;8.70;;;8.60;95.80;;;;;;4973617;28;20027;-65
2021/11/18 09:53:58;;;;;;;25.05;8.25;;;8.60;95.90;;;;;;4975139;28;20038;-67
2021/11/18 09:56:43;;;;;;;;;;;8.70;95.80;;;;;;4978693;28;20031;-65
2021/11/18 09:59:26;;;;;;;19.83;7.30;;;8.80;95.60;;;;;;4981455;28;19934;-65
2021/11/18 10:02:29;;;;;;;20.95;7.75;;;8.80;95.70;;;;;;4980550;28;20206;-67
2021/11/18 10:05:04;;;;;;;23.73;7.88;;;8.90;95.50;;;;;;4984574;28;20050;-67
2021/11/18 10:07:35;;;;;;;29.08;7.60;;;8.90;95.30;;;;;;4983060;28;20068;-67
2021/11/18 10:10:32;;;;;;;22.88;6.97;;;9.00;95.20;;;;;;4979637;28;20030;-66
2021/11/18 10:13:23;;;;;;;27.83;7.43;;;9.00;94.90;;;;;;4982249;28;20053;-66
2021/11/18 10:16:02;;;;;;;26.35;7.50;;;9.00;94.90;;;;;;4977576;28;20097;-67
2021/11/18 10:18:54;;;;;;;28.10;7.72;;;9.00;94.70;;;;;;4974248;28;20038;-67
2021/11/18 10:21:30;;;;;;;22.38;7.10;;;9.00;94.70;;;;;;4980376;28;20445;-65
2021/11/18 10:24:01;;;;;;;24.48;7.30;;;9.00;94.60;;;;;;4983737;28;20270;-65
2021/11/18 10:26:33;;;;;;;13.88;6.80;;;9.00;94.50;;;;;;4981815;28;20038;-65
2021/11/18 10:29:01;;;;;;;23.42;6.50;;;9.10;94.30;;;;;;4981771;28;20105;-66
2021/11/18 10:31:50;;;;;;;22.08;6.90;;;9.20;94.40;;;;;;4981115;28;20081;-66
2021/11/18 10:34:30;;;;;;;27.73;6.78;;;9.30;93.80;;;;;;4982445;28;20744;-67
2021/11/18 10:37:07;;;;;;;22.10;6.15;;;9.30;94.10;;;;;;4981644;28;20038;-67
2021/11/18 10:39:33;;;;;;;31.38;7.05;;;9.30;93.80;;;;;;4981773;28;20037;-66
2021/11/18 10:42:06;;;;;;;20.83;6.63;;;9.30;93.80;;;;;;4980077;28;20386;-67
2021/11/18 10:44:48;;;;;;;19.63;6.40;;;9.30;94.00;;;;;;4978477;28;20030;-65
2021/11/18 10:47:22;;;;;;;15.68;6.45;;;9.20;94.10;;;;;;4986929;28;22084;-68
2021/11/18 10:49:56;;;;;;;19.33;6.95;;;9.20;94.10;;;;;;4979913;28;20065;-67
2021/11/18 10:52:28;;;;;;;25.33;6.57;;;9.20;93.90;;;;;;4977152;28;20038;-66
2021/11/18 10:55:08;;;;;;;24.27;6.88;;;9.30;93.70;;;;;;4981391;28;20031;-66
2021/11/18 10:57:35;;;;;;;22.05;7.20;;;9.40;93.60;;;;;;4983217;28;20042;-66
2021/11/18 11:00:43;;;;;;;18.52;6.38;;;9.50;93.60;;;;;;4981873;28;20042;-66
2021/11/18 11:03:27;;;;;;;17.67;6.22;;;9.60;93.30;;;;;;4973226;28;20531;-66
2021/11/18 11:06:22;;;;;;;18.00;6.13;;;9.70;92.90;;;;;;4987929;28;20425;-66
2021/11/18 11:08:50;;;;;;;18.30;5.78;;;9.70;92.80;;;;;;4980236;28;20027;-66
2021/11/18 11:11:38;;;;;;;17.42;6.35;;;9.60;92.60;;;;;;4988759;28;20034;-67
2021/11/18 11:14:12;;;;;;;20.63;5.78;;;9.60;93.10;;;;;;4984664;28;20065;-66
2021/11/18 11:16:57;;;;;;;19.70;6.18;;;9.50;93.20;;;;;;4984676;28;20294;-67
2021/11/18 11:19:42;;;;;;;23.95;6.70;;;9.50;93.20;;;;;;4980555;28;20085;-65
2021/11/18 11:22:30;;;;;;;21.85;6.47;;;9.40;93.60;;;;;;4982307;28;20042;-65
2021/11/18 11:25:02;;;;;;;28.00;6.90;;;9.30;93.30;;;;;;4984974;28;20037;-66
2021/11/18 11:27:56;;;;;;;23.70;6.10;;;9.30;93.30;;;;;;4981469;28;20122;-67
2021/11/18 11:30:29;;;;;;;27.83;6.63;;;9.30;93.50;;;;;;4985718;28;20128;-66
2021/11/18 11:33:09;;;;;;;21.42;6.65;;;9.30;93.70;;;;;;4984517;28;20038;-67
2021/11/18 11:35:42;;;;;;;23.65;6.15;;;9.30;93.00;;;;;;4989229;28;20022;-67
2021/11/18 11:38:35;;;;;;;23.65;5.95;;;9.40;93.20;;;;;;5009351;23;20053;-75
2021/11/18 11:41:06;;;;;;;23.60;6.70;;;9.40;92.90;;;;;;5000723;28;20026;-75
2021/11/18 11:43:40;;;;;;;20.30;6.70;;;9.50;93.20;;;;;;4988409;28;20429;-75
2021/11/18 11:46:23;;;;;;;19.30;5.95;;;9.50;93.30;;;;;;5006194;28;20022;-75
2021/11/18 11:49:26;;;;;;;19.40;6.68;;;9.50;93.30;;;;;;4972454;28;20026;-75
2021/11/18 11:52:10;;;;;;;20.38;6.50;;;9.40;93.20;;;;;;4985324;28;20030;-75
2021/11/18 11:54:57;;;;;;;21.63;6.55;;;9.50;93.30;;;;;;4980954;28;20046;-76
2021/11/18 11:57:45;;;;;;;18.95;7.00;;;9.40;93.30;;;;;;4981518;28;20037;-75
2021/11/18 12:00:22;;;;;;;22.83;6.75;;;9.40;93.20;;;;;;4984010;28;20037;-75
2021/11/18 12:02:50;;;;;;;26.27;6.53;;;9.40;93.40;;;;;;4972419;28;20045;-76
2021/11/18 12:05:24;;;;;;;23.23;6.53;;;9.40;93.30;;;;;;4963429;28;20116;-77
2021/11/18 12:08:16;;;;;;;21.17;5.75;;;9.40;93.10;;;;;;4977998;28;20038;-76
2021/11/18 12:10:54;;;;;;;20.10;5.93;;;9.40;93.00;;;;;;4977183;28;20404;-77
2021/11/18 12:13:38;;;;;;;16.77;5.90;;;9.50;93.10;;;;;;4981396;28;20173;-77
2021/11/18 12:16:16;;;;;;;23.50;6.53;;;9.50;93.00;;;;;;4983770;28;20043;-78
2021/11/18 12:18:50;;;;;;;20.98;5.45;;;9.50;92.80;;;;;;4979180;28;20073;-75
2021/11/18 12:21:18;;;;;;;26.23;6.57;;;9.50;92.70;;;;;;4961499;28;20415;-74
2021/11/18 12:23:58;;;;;;;16.10;5.90;;;9.50;92.40;;;;;;4983520;28;20026;-75
2021/11/18 12:26:24;;;;;;;22.23;5.60;;;9.50;92.60;;;;;;4983706;28;20041;-76
2021/11/18 12:29:17;;;;;;;21.63;6.05;;;9.50;92.60;;;;;;4977185;28;20470;-76
2021/11/18 12:32:09;;;;;;;14.13;4.88;;;9.40;92.90;;;;;;4980887;28;20101;-75
2021/11/18 12:34:53;;;;;;;19.92;6.20;;;9.40;92.80;;;;;;4975939;28;20030;-76
2021/11/18 12:37:46;;;;;;;24.38;6.05;;;9.30;93.20;;;;;;4978837;28;20045;-77
2021/11/18 12:41:01;;;;;;;17.40;6.18;;;9.30;93.70;;;;;;4974315;28;20022;-76
2021/11/18 12:43:42;;;;;;;14.60;5.22;;;9.30;93.40;;;;;;4979053;28;20084;-76
2021/11/18 12:46:26;;;;;;;19.63;5.80;;;9.20;93.60;;;;;;4982454;28;20030;-76
2021/11/18 12:48:52;;;;;;;25.75;5.82;;;9.20;93.70;;;;;;5000294;28;20786;-76
2021/11/18 12:51:41;;;;;;;25.58;6.55;;;9.20;93.70;;;;;;4983625;28;20160;-75
2021/11/18 12:54:10;;;;;;;21.83;6.65;;;9.30;93.30;;;;;;4983889;28;20071;-78
2021/11/18 12:57:02;;;;;;;27.02;6.65;;;9.30;93.60;;;;;;4982140;28;20382;-76
2021/11/18 12:59:37;;;;;;;20.95;5.75;;;9.30;93.50;;;;;;4984010;28;20022;-76
2021/11/18 13:02:41;;;;;;;24.92;6.18;;;9.30;93.80;;;;;;4983157;28;20113;-75
2021/11/18 13:05:09;;;;;;;21.52;6.05;;;9.30;93.60;;;;;;4985253;28;20137;-76